sensor_id;sensor_type;location;lat;lon;timestamp;temperature;humidity
23471;DHT22;11908;50.806;4.424;2024-03-25T00:02:00;4.70;99.90
23471;DHT22;11908;50.806;4.424;2024-03-25T00:04:26;4.60;99.90
23471;DHT22;11908;50.806;4.424;2024-03-25T00:06:52;4.60;99.90
23471;DHT22;11908;50.806;4.424;2024-03-25T00:09:18;4.50;99.90
23471;DHT22;11908;50.806;4.424;2024-03-25T00:11:44;4.60;99.90
23471;DHT22;11908;50.806;4.424;2024-03-25T00:14:10;4.50;99.90
23471;DHT22;11908;50.806;4.424;2024-03-25T00:16:35;4.40;99.90
23471;DHT22;11908;50.806;4.424;2024-03-25T00:19:02;4.40;99.90
23471;DHT22;11908;50.806;4.424;2024-03-25T00:21:28;4.40;99.90
23471;DHT22;11908;50.806;4.424;2024-03-25T00:23:54;4.40;99.90
23471;DHT22;11908;50.806;4.424;2024-03-25T00:26:23;4.50;99.90
23471;DHT22;11908;50.806;4.424;2024-03-25T00:28:49;4.50;99.90
23471;DHT22;11908;50.806;4.424;2024-03-25T00:31:14;4.40;99.90
23471;DHT22;11908;50.806;4.424;2024-03-25T00:33:40;4.40;99.90
23471;DHT22;11908;50.806;4.424;2024-03-25T00:36:06;4.30;99.90
23471;DHT22;11908;50.806;4.424;2024-03-25T00:38:33;4.40;99.90
23471;DHT22;11908;50.806;4.424;2024-03-25T00:40:58;4.40;99.90
23471;DHT22;11908;50.806;4.424;2024-03-25T00:43:24;4.30;99.90
23471;DHT22;11908;50.806;4.424;2024-03-25T00:45:50;4.30;99.90
23471;DHT22;11908;50.806;4.424;2024-03-25T00:48:15;4.30;99.90
23471;DHT22;11908;50.806;4.424;2024-03-25T00:50:41;4.30;99.90
23471;DHT22;11908;50.806;4.424;2024-03-25T00:53:07;4.30;99.90
23471;DHT22;11908;50.806;4.424;2024-03-25T00:55:33;4.30;99.90
23471;DHT22;11908;50.806;4.424;2024-03-25T00:58:02;4.20;99.90
23471;DHT22;11908;50.806;4.424;2024-03-25T01:00:27;4.30;99.90
23471;DHT22;11908;50.806;4.424;2024-03-25T01:02:53;4.10;99.90
23471;DHT22;11908;50.806;4.424;2024-03-25T01:05:19;4.10;99.90
23471;DHT22;11908;50.806;4.424;2024-03-25T01:07:44;4.10;99.90
23471;DHT22;11908;50.806;4.424;2024-03-25T01:10:10;4.00;99.90
23471;DHT22;11908;50.806;4.424;2024-03-25T01:12:37;4.10;99.90
23471;DHT22;11908;50.806;4.424;2024-03-25T01:15:03;4.10;99.90
23471;DHT22;11908;50.806;4.424;2024-03-25T01:17:30;4.00;99.90
23471;DHT22;11908;50.806;4.424;2024-03-25T01:19:56;4.00;99.90
23471;DHT22;11908;50.806;4.424;2024-03-25T01:22:22;4.00;99.90
23471;DHT22;11908;50.806;4.424;2024-03-25T01:24:47;4.00;99.90
23471;DHT22;11908;50.806;4.424;2024-03-25T01:27:13;4.00;99.90
23471;DHT22;11908;50.806;4.424;2024-03-25T01:29:39;4.00;99.90
23471;DHT22;11908;50.806;4.424;2024-03-25T01:32:04;3.90;99.90
23471;DHT22;11908;50.806;4.424;2024-03-25T01:34:31;3.90;99.90
23471;DHT22;11908;50.806;4.424;2024-03-25T01:36:56;3.90;99.90
23471;DHT22;11908;50.806;4.424;2024-03-25T01:39:22;3.90;99.90
23471;DHT22;11908;50.806;4.424;2024-03-25T01:41:50;3.80;99.90
23471;DHT22;11908;50.806;4.424;2024-03-25T01:44:16;3.90;99.90
23471;DHT22;11908;50.806;4.424;2024-03-25T01:46:41;3.80;99.90
23471;DHT22;11908;50.806;4.424;2024-03-25T01:49:08;3.80;99.90
23471;DHT22;11908;50.806;4.424;2024-03-25T01:51:35;3.80;99.90
23471;DHT22;11908;50.806;4.424;2024-03-25T01:54:02;3.80;99.90
23471;DHT22;11908;50.806;4.424;2024-03-25T01:56:31;3.80;99.90
23471;DHT22;11908;50.806;4.424;2024-03-25T01:58:57;3.80;99.90
23471;DHT22;11908;50.806;4.424;2024-03-25T02:04:16;3.70;99.90
23471;DHT22;11908;50.806;4.424;2024-03-25T02:06:42;3.60;99.90
23471;DHT22;11908;50.806;4.424;2024-03-25T02:09:10;3.50;99.90
23471;DHT22;11908;50.806;4.424;2024-03-25T02:11:38;3.50;99.90
23471;DHT22;11908;50.806;4.424;2024-03-25T02:14:05;3.50;99.90
23471;DHT22;11908;50.806;4.424;2024-03-25T02:16:31;3.50;99.90
23471;DHT22;11908;50.806;4.424;2024-03-25T02:18:57;3.50;99.90
23471;DHT22;11908;50.806;4.424;2024-03-25T02:21:23;3.60;99.90
23471;DHT22;11908;50.806;4.424;2024-03-25T02:23:50;3.60;99.90
23471;DHT22;11908;50.806;4.424;2024-03-25T02:26:18;3.50;99.90
23471;DHT22;11908;50.806;4.424;2024-03-25T02:28:44;3.50;99.90
23471;DHT22;11908;50.806;4.424;2024-03-25T02:31:09;3.50;99.90
23471;DHT22;11908;50.806;4.424;2024-03-25T02:33:35;3.50;99.90
23471;DHT22;11908;50.806;4.424;2024-03-25T02:36:01;3.50;99.90
23471;DHT22;11908;50.806;4.424;2024-03-25T02:38:27;3.50;99.90
23471;DHT22;11908;50.806;4.424;2024-03-25T02:40:53;3.60;99.90
23471;DHT22;11908;50.806;4.424;2024-03-25T02:43:19;3.50;99.90
23471;DHT22;11908;50.806;4.424;2024-03-25T02:45:46;3.50;99.90
23471;DHT22;11908;50.806;4.424;2024-03-25T02:48:12;3.40;99.90
23471;DHT22;11908;50.806;4.424;2024-03-25T02:50:38;3.50;99.90
23471;DHT22;11908;50.806;4.424;2024-03-25T02:53:03;3.40;99.90
23471;DHT22;11908;50.806;4.424;2024-03-25T02:55:29;3.50;99.90
23471;DHT22;11908;50.806;4.424;2024-03-25T02:57:55;3.50;99.90
23471;DHT22;11908;50.806;4.424;2024-03-25T03:00:20;3.50;99.90
23471;DHT22;11908;50.806;4.424;2024-03-25T03:02:46;3.50;99.90
23471;DHT22;11908;50.806;4.424;2024-03-25T03:05:12;3.50;99.90
23471;DHT22;11908;50.806;4.424;2024-03-25T03:07:37;3.50;99.90
23471;DHT22;11908;50.806;4.424;2024-03-25T03:10:03;3.50;99.90
23471;DHT22;11908;50.806;4.424;2024-03-25T03:12:29;3.60;99.90
23471;DHT22;11908;50.806;4.424;2024-03-25T03:14:55;3.70;99.90
23471;DHT22;11908;50.806;4.424;2024-03-25T03:17:21;3.80;99.90
23471;DHT22;11908;50.806;4.424;2024-03-25T03:19:46;3.90;99.90
23471;DHT22;11908;50.806;4.424;2024-03-25T03:22:12;3.90;99.90
23471;DHT22;11908;50.806;4.424;2024-03-25T03:24:38;3.90;99.90
23471;DHT22;11908;50.806;4.424;2024-03-25T03:27:03;4.00;99.90
23471;DHT22;11908;50.806;4.424;2024-03-25T03:29:29;4.00;99.90
23471;DHT22;11908;50.806;4.424;2024-03-25T03:31:55;4.10;99.90
23471;DHT22;11908;50.806;4.424;2024-03-25T03:34:20;4.10;99.90
23471;DHT22;11908;50.806;4.424;2024-03-25T03:36:46;4.00;99.90
23471;DHT22;11908;50.806;4.424;2024-03-25T03:39:12;3.90;99.90
23471;DHT22;11908;50.806;4.424;2024-03-25T03:41:39;3.90;99.90
23471;DHT22;11908;50.806;4.424;2024-03-25T03:44:04;3.90;99.90
23471;DHT22;11908;50.806;4.424;2024-03-25T03:46:30;3.90;99.90
23471;DHT22;11908;50.806;4.424;2024-03-25T03:48:56;3.90;99.90
23471;DHT22;11908;50.806;4.424;2024-03-25T03:51:21;3.90;99.90
23471;DHT22;11908;50.806;4.424;2024-03-25T03:53:47;3.80;99.90
23471;DHT22;11908;50.806;4.424;2024-03-25T03:56:13;3.80;99.90
23471;DHT22;11908;50.806;4.424;2024-03-25T03:58:38;3.80;99.90
23471;DHT22;11908;50.806;4.424;2024-03-25T04:01:04;3.80;99.90
23471;DHT22;11908;50.806;4.424;2024-03-25T04:03:30;3.80;99.90
23471;DHT22;11908;50.806;4.424;2024-03-25T04:05:56;3.80;99.90
23471;DHT22;11908;50.806;4.424;2024-03-25T04:08:21;3.80;99.90
23471;DHT22;11908;50.806;4.424;2024-03-25T04:10:47;3.80;99.90
23471;DHT22;11908;50.806;4.424;2024-03-25T04:13:13;3.70;99.90
23471;DHT22;11908;50.806;4.424;2024-03-25T04:15:40;3.70;99.90
23471;DHT22;11908;50.806;4.424;2024-03-25T04:18:06;3.60;99.90
23471;DHT22;11908;50.806;4.424;2024-03-25T04:20:39;3.60;99.90
23471;DHT22;11908;50.806;4.424;2024-03-25T04:23:05;3.60;99.90
23471;DHT22;11908;50.806;4.424;2024-03-25T04:25:33;3.60;99.90
23471;DHT22;11908;50.806;4.424;2024-03-25T04:27:59;3.60;99.90
23471;DHT22;11908;50.806;4.424;2024-03-25T04:30:25;3.60;99.90
23471;DHT22;11908;50.806;4.424;2024-03-25T04:32:50;3.60;99.90
23471;DHT22;11908;50.806;4.424;2024-03-25T04:35:16;3.60;99.90
23471;DHT22;11908;50.806;4.424;2024-03-25T04:37:42;3.50;99.90
23471;DHT22;11908;50.806;4.424;2024-03-25T04:40:08;3.50;99.90
23471;DHT22;11908;50.806;4.424;2024-03-25T04:42:34;3.50;99.90
23471;DHT22;11908;50.806;4.424;2024-03-25T04:44:59;3.50;99.90
23471;DHT22;11908;50.806;4.424;2024-03-25T04:47:25;3.40;99.90
23471;DHT22;11908;50.806;4.424;2024-03-25T04:49:51;3.40;99.90
23471;DHT22;11908;50.806;4.424;2024-03-25T04:52:17;3.40;99.90
23471;DHT22;11908;50.806;4.424;2024-03-25T04:54:43;3.40;99.90
23471;DHT22;11908;50.806;4.424;2024-03-25T04:57:09;3.40;99.90
23471;DHT22;11908;50.806;4.424;2024-03-25T04:59:35;3.30;99.90
23471;DHT22;11908;50.806;4.424;2024-03-25T05:02:01;3.30;99.90
23471;DHT22;11908;50.806;4.424;2024-03-25T05:04:27;3.30;99.90
23471;DHT22;11908;50.806;4.424;2024-03-25T05:06:53;3.30;99.90
23471;DHT22;11908;50.806;4.424;2024-03-25T05:09:19;3.30;99.90
23471;DHT22;11908;50.806;4.424;2024-03-25T05:11:45;3.20;99.90
23471;DHT22;11908;50.806;4.424;2024-03-25T05:14:11;3.20;99.90
23471;DHT22;11908;50.806;4.424;2024-03-25T05:16:37;3.20;99.90
23471;DHT22;11908;50.806;4.424;2024-03-25T05:19:03;3.20;99.90
23471;DHT22;11908;50.806;4.424;2024-03-25T05:21:32;3.20;99.90
23471;DHT22;11908;50.806;4.424;2024-03-25T05:23:58;3.20;99.90
23471;DHT22;11908;50.806;4.424;2024-03-25T05:26:24;3.30;99.90
23471;DHT22;11908;50.806;4.424;2024-03-25T05:28:53;3.30;99.90
23471;DHT22;11908;50.806;4.424;2024-03-25T05:31:19;3.30;99.90
23471;DHT22;11908;50.806;4.424;2024-03-25T05:33:45;3.30;99.90
23471;DHT22;11908;50.806;4.424;2024-03-25T05:36:10;3.40;99.90
23471;DHT22;11908;50.806;4.424;2024-03-25T05:38:36;3.50;99.90
23471;DHT22;11908;50.806;4.424;2024-03-25T05:41:02;3.50;99.90
23471;DHT22;11908;50.806;4.424;2024-03-25T05:43:27;3.60;99.90
23471;DHT22;11908;50.806;4.424;2024-03-25T05:45:54;3.60;99.90
23471;DHT22;11908;50.806;4.424;2024-03-25T05:48:20;3.70;99.90
23471;DHT22;11908;50.806;4.424;2024-03-25T05:50:46;3.80;99.90
23471;DHT22;11908;50.806;4.424;2024-03-25T05:53:11;3.80;99.90
23471;DHT22;11908;50.806;4.424;2024-03-25T05:55:37;4.00;99.90
23471;DHT22;11908;50.806;4.424;2024-03-25T05:58:04;4.10;99.90
23471;DHT22;11908;50.806;4.424;2024-03-25T06:00:30;4.40;99.90
23471;DHT22;11908;50.806;4.424;2024-03-25T06:02:58;4.70;99.90
23471;DHT22;11908;50.806;4.424;2024-03-25T06:05:23;5.00;99.90
23471;DHT22;11908;50.806;4.424;2024-03-25T06:07:50;5.30;99.90
23471;DHT22;11908;50.806;4.424;2024-03-25T06:10:15;5.60;99.90
23471;DHT22;11908;50.806;4.424;2024-03-25T06:12:41;5.70;99.90
23471;DHT22;11908;50.806;4.424;2024-03-25T06:15:07;5.90;99.90
23471;DHT22;11908;50.806;4.424;2024-03-25T06:17:33;6.00;99.90
23471;DHT22;11908;50.806;4.424;2024-03-25T06:19:59;6.10;99.90
23471;DHT22;11908;50.806;4.424;2024-03-25T06:22:25;6.20;99.90
23471;DHT22;11908;50.806;4.424;2024-03-25T06:24:51;6.20;99.90
23471;DHT22;11908;50.806;4.424;2024-03-25T06:27:17;6.20;99.90
23471;DHT22;11908;50.806;4.424;2024-03-25T06:29:42;6.30;99.90
23471;DHT22;11908;50.806;4.424;2024-03-25T06:32:09;6.30;99.90
23471;DHT22;11908;50.806;4.424;2024-03-25T06:34:53;6.30;99.90
23471;DHT22;11908;50.806;4.424;2024-03-25T06:37:19;6.40;99.90
23471;DHT22;11908;50.806;4.424;2024-03-25T06:39:44;6.40;99.90
23471;DHT22;11908;50.806;4.424;2024-03-25T06:42:10;6.50;99.90
23471;DHT22;11908;50.806;4.424;2024-03-25T06:44:36;6.60;99.90
23471;DHT22;11908;50.806;4.424;2024-03-25T06:47:01;6.80;99.90
23471;DHT22;11908;50.806;4.424;2024-03-25T06:49:28;6.90;99.90
23471;DHT22;11908;50.806;4.424;2024-03-25T06:51:54;7.00;99.90
23471;DHT22;11908;50.806;4.424;2024-03-25T06:54:20;7.10;99.90
23471;DHT22;11908;50.806;4.424;2024-03-25T06:56:45;7.30;99.90
23471;DHT22;11908;50.806;4.424;2024-03-25T06:59:11;7.40;99.90
23471;DHT22;11908;50.806;4.424;2024-03-25T07:01:36;7.50;99.90
23471;DHT22;11908;50.806;4.424;2024-03-25T07:04:02;7.70;99.90
23471;DHT22;11908;50.806;4.424;2024-03-25T07:06:28;7.80;99.90
23471;DHT22;11908;50.806;4.424;2024-03-25T07:08:54;7.60;99.90
23471;DHT22;11908;50.806;4.424;2024-03-25T07:11:20;7.80;99.90
23471;DHT22;11908;50.806;4.424;2024-03-25T07:13:46;7.90;99.90
23471;DHT22;11908;50.806;4.424;2024-03-25T07:16:11;8.10;99.90
23471;DHT22;11908;50.806;4.424;2024-03-25T07:18:37;8.20;99.90
23471;DHT22;11908;50.806;4.424;2024-03-25T07:21:03;8.20;99.90
23471;DHT22;11908;50.806;4.424;2024-03-25T07:23:28;8.20;99.90
23471;DHT22;11908;50.806;4.424;2024-03-25T07:25:54;8.40;99.90
23471;DHT22;11908;50.806;4.424;2024-03-25T07:28:20;8.40;99.90
23471;DHT22;11908;50.806;4.424;2024-03-25T07:30:46;8.50;99.90
23471;DHT22;11908;50.806;4.424;2024-03-25T07:33:12;8.50;99.90
23471;DHT22;11908;50.806;4.424;2024-03-25T07:35:38;8.70;99.90
23471;DHT22;11908;50.806;4.424;2024-03-25T07:38:03;8.70;99.90
23471;DHT22;11908;50.806;4.424;2024-03-25T07:40:29;8.80;99.90
23471;DHT22;11908;50.806;4.424;2024-03-25T07:42:55;8.90;99.90
23471;DHT22;11908;50.806;4.424;2024-03-25T07:45:22;9.10;99.90
23471;DHT22;11908;50.806;4.424;2024-03-25T07:47:47;9.30;99.90
23471;DHT22;11908;50.806;4.424;2024-03-25T07:50:13;9.30;99.90
23471;DHT22;11908;50.806;4.424;2024-03-25T07:52:38;9.30;99.90
23471;DHT22;11908;50.806;4.424;2024-03-25T07:55:08;9.50;99.90
23471;DHT22;11908;50.806;4.424;2024-03-25T07:57:34;9.60;99.90
23471;DHT22;11908;50.806;4.424;2024-03-25T08:00:00;9.80;99.90
23471;DHT22;11908;50.806;4.424;2024-03-25T08:02:26;9.90;99.90
23471;DHT22;11908;50.806;4.424;2024-03-25T08:04:51;10.00;99.90
23471;DHT22;11908;50.806;4.424;2024-03-25T08:07:17;10.10;99.90
23471;DHT22;11908;50.806;4.424;2024-03-25T08:09:42;10.30;99.90
23471;DHT22;11908;50.806;4.424;2024-03-25T08:12:08;10.60;99.90
23471;DHT22;11908;50.806;4.424;2024-03-25T08:14:34;10.60;99.90
23471;DHT22;11908;50.806;4.424;2024-03-25T08:17:00;10.90;99.90
23471;DHT22;11908;50.806;4.424;2024-03-25T08:19:25;11.20;99.90
23471;DHT22;11908;50.806;4.424;2024-03-25T08:21:51;11.50;99.90
23471;DHT22;11908;50.806;4.424;2024-03-25T08:24:17;12.40;99.90
23471;DHT22;11908;50.806;4.424;2024-03-25T08:26:42;12.90;99.90
23471;DHT22;11908;50.806;4.424;2024-03-25T08:29:08;13.10;99.90
23471;DHT22;11908;50.806;4.424;2024-03-25T08:31:34;13.30;99.90
23471;DHT22;11908;50.806;4.424;2024-03-25T08:33:59;13.90;99.90
23471;DHT22;11908;50.806;4.424;2024-03-25T08:36:25;14.20;99.90
23471;DHT22;11908;50.806;4.424;2024-03-25T08:38:50;15.30;99.90
23471;DHT22;11908;50.806;4.424;2024-03-25T08:41:16;15.80;99.90
23471;DHT22;11908;50.806;4.424;2024-03-25T08:43:42;16.50;99.90
23471;DHT22;11908;50.806;4.424;2024-03-25T08:46:07;17.50;99.90
23471;DHT22;11908;50.806;4.424;2024-03-25T08:48:33;17.90;99.90
23471;DHT22;11908;50.806;4.424;2024-03-25T08:50:59;18.40;99.90
23471;DHT22;11908;50.806;4.424;2024-03-25T08:53:24;18.40;99.90
23471;DHT22;11908;50.806;4.424;2024-03-25T08:55:50;18.60;99.90
23471;DHT22;11908;50.806;4.424;2024-03-25T08:58:16;18.70;99.90
23471;DHT22;11908;50.806;4.424;2024-03-25T09:00:42;19.80;99.90
23471;DHT22;11908;50.806;4.424;2024-03-25T09:03:08;19.70;99.90
23471;DHT22;11908;50.806;4.424;2024-03-25T09:05:34;20.60;99.90
23471;DHT22;11908;50.806;4.424;2024-03-25T09:08:00;20.20;99.90
23471;DHT22;11908;50.806;4.424;2024-03-25T09:10:26;20.30;99.90
23471;DHT22;11908;50.806;4.424;2024-03-25T09:13:11;20.50;99.90
23471;DHT22;11908;50.806;4.424;2024-03-25T09:15:37;21.00;99.90
23471;DHT22;11908;50.806;4.424;2024-03-25T09:18:02;21.00;99.90
23471;DHT22;11908;50.806;4.424;2024-03-25T09:20:28;20.70;99.90
23471;DHT22;11908;50.806;4.424;2024-03-25T09:22:54;19.90;99.90
23471;DHT22;11908;50.806;4.424;2024-03-25T09:25:19;19.20;99.90
23471;DHT22;11908;50.806;4.424;2024-03-25T09:27:46;19.00;99.90
23471;DHT22;11908;50.806;4.424;2024-03-25T09:30:12;19.10;99.90
23471;DHT22;11908;50.806;4.424;2024-03-25T09:32:42;19.20;99.90
23471;DHT22;11908;50.806;4.424;2024-03-25T09:35:09;19.50;99.90
23471;DHT22;11908;50.806;4.424;2024-03-25T09:37:35;20.80;99.90
23471;DHT22;11908;50.806;4.424;2024-03-25T09:40:00;21.10;99.90
23471;DHT22;11908;50.806;4.424;2024-03-25T09:42:27;21.80;99.90
23471;DHT22;11908;50.806;4.424;2024-03-25T09:44:57;21.40;99.90
23471;DHT22;11908;50.806;4.424;2024-03-25T09:47:23;20.60;99.90
23471;DHT22;11908;50.806;4.424;2024-03-25T09:49:49;20.50;99.90
23471;DHT22;11908;50.806;4.424;2024-03-25T09:52:15;19.80;99.90
23471;DHT22;11908;50.806;4.424;2024-03-25T09:54:41;20.10;99.90
23471;DHT22;11908;50.806;4.424;2024-03-25T09:57:08;20.40;99.90
23471;DHT22;11908;50.806;4.424;2024-03-25T09:59:34;19.70;99.90
23471;DHT22;11908;50.806;4.424;2024-03-25T10:02:01;20.50;99.90
23471;DHT22;11908;50.806;4.424;2024-03-25T10:04:27;19.70;99.90
23471;DHT22;11908;50.806;4.424;2024-03-25T10:06:53;20.20;99.90
23471;DHT22;11908;50.806;4.424;2024-03-25T10:09:22;20.90;99.90
23471;DHT22;11908;50.806;4.424;2024-03-25T10:11:51;21.00;99.90
23471;DHT22;11908;50.806;4.424;2024-03-25T10:14:17;21.10;99.90
23471;DHT22;11908;50.806;4.424;2024-03-25T10:16:43;20.80;99.50
23471;DHT22;11908;50.806;4.424;2024-03-25T10:19:09;19.80;99.90
23471;DHT22;11908;50.806;4.424;2024-03-25T10:21:35;19.30;99.90
23471;DHT22;11908;50.806;4.424;2024-03-25T10:24:01;19.50;99.90
23471;DHT22;11908;50.806;4.424;2024-03-25T10:26:31;20.70;99.90
23471;DHT22;11908;50.806;4.424;2024-03-25T10:29:05;21.30;99.90
23471;DHT22;11908;50.806;4.424;2024-03-25T10:31:32;21.30;99.90
23471;DHT22;11908;50.806;4.424;2024-03-25T10:33:58;21.30;98.70
23471;DHT22;11908;50.806;4.424;2024-03-25T10:36:24;21.90;97.80
23471;DHT22;11908;50.806;4.424;2024-03-25T10:39:01;21.10;95.40
23471;DHT22;11908;50.806;4.424;2024-03-25T10:41:28;20.60;95.80
23471;DHT22;11908;50.806;4.424;2024-03-25T10:43:55;21.00;93.20
23471;DHT22;11908;50.806;4.424;2024-03-25T10:46:23;20.40;94.10
23471;DHT22;11908;50.806;4.424;2024-03-25T10:49:17;19.20;97.10
23471;DHT22;11908;50.806;4.424;2024-03-25T10:51:45;19.10;98.50
23471;DHT22;11908;50.806;4.424;2024-03-25T10:54:13;19.90;99.90
23471;DHT22;11908;50.806;4.424;2024-03-25T10:56:39;19.90;93.80
23471;DHT22;11908;50.806;4.424;2024-03-25T10:59:06;19.70;92.80
23471;DHT22;11908;50.806;4.424;2024-03-25T11:01:35;18.60;98.60
23471;DHT22;11908;50.806;4.424;2024-03-25T11:04:01;18.60;97.90
23471;DHT22;11908;50.806;4.424;2024-03-25T11:06:26;18.80;95.90
23471;DHT22;11908;50.806;4.424;2024-03-25T11:08:56;19.00;99.00
23471;DHT22;11908;50.806;4.424;2024-03-25T11:11:23;19.00;98.30
23471;DHT22;11908;50.806;4.424;2024-03-25T11:13:49;19.30;99.90
23471;DHT22;11908;50.806;4.424;2024-03-25T11:16:28;19.80;99.00
23471;DHT22;11908;50.806;4.424;2024-03-25T11:18:54;20.40;94.50
23471;DHT22;11908;50.806;4.424;2024-03-25T11:21:25;20.10;94.50
23471;DHT22;11908;50.806;4.424;2024-03-25T11:23:50;19.60;92.10
23471;DHT22;11908;50.806;4.424;2024-03-25T11:26:24;19.40;92.20
23471;DHT22;11908;50.806;4.424;2024-03-25T11:28:50;19.60;94.10
23471;DHT22;11908;50.806;4.424;2024-03-25T11:31:22;19.10;96.20
23471;DHT22;11908;50.806;4.424;2024-03-25T11:33:50;19.40;95.00
23471;DHT22;11908;50.806;4.424;2024-03-25T11:36:16;19.90;93.40
23471;DHT22;11908;50.806;4.424;2024-03-25T11:38:44;20.20;91.40
23471;DHT22;11908;50.806;4.424;2024-03-25T11:41:13;19.60;90.30
23471;DHT22;11908;50.806;4.424;2024-03-25T11:43:39;20.00;90.50
23471;DHT22;11908;50.806;4.424;2024-03-25T11:46:07;20.50;90.50
23471;DHT22;11908;50.806;4.424;2024-03-25T11:48:33;20.50;84.60
23471;DHT22;11908;50.806;4.424;2024-03-25T11:50:59;19.30;87.90
23471;DHT22;11908;50.806;4.424;2024-03-25T11:53:26;18.30;86.00
23471;DHT22;11908;50.806;4.424;2024-03-25T11:55:53;17.00;90.50
23471;DHT22;11908;50.806;4.424;2024-03-25T11:58:18;16.20;91.70
23471;DHT22;11908;50.806;4.424;2024-03-25T12:00:47;16.30;94.10
23471;DHT22;11908;50.806;4.424;2024-03-25T12:03:17;16.10;93.20
23471;DHT22;11908;50.806;4.424;2024-03-25T12:05:46;16.00;92.60
23471;DHT22;11908;50.806;4.424;2024-03-25T12:08:12;15.90;94.30
23471;DHT22;11908;50.806;4.424;2024-03-25T12:10:38;15.80;94.50
23471;DHT22;11908;50.806;4.424;2024-03-25T12:13:23;15.90;91.80
23471;DHT22;11908;50.806;4.424;2024-03-25T12:15:50;16.00;94.70
23471;DHT22;11908;50.806;4.424;2024-03-25T12:18:17;15.50;93.50
23471;DHT22;11908;50.806;4.424;2024-03-25T12:20:45;15.30;94.30
23471;DHT22;11908;50.806;4.424;2024-03-25T12:23:11;15.10;95.40
23471;DHT22;11908;50.806;4.424;2024-03-25T12:25:37;15.10;97.40
23471;DHT22;11908;50.806;4.424;2024-03-25T12:28:08;15.20;98.60
23471;DHT22;11908;50.806;4.424;2024-03-25T12:30:51;15.00;96.70
23471;DHT22;11908;50.806;4.424;2024-03-25T12:33:17;14.60;95.70
23471;DHT22;11908;50.806;4.424;2024-03-25T12:35:49;14.60;95.50
23471;DHT22;11908;50.806;4.424;2024-03-25T12:40:47;15.10;96.40
23471;DHT22;11908;50.806;4.424;2024-03-25T12:43:16;15.50;94.50
23471;DHT22;11908;50.806;4.424;2024-03-25T12:45:41;16.00;93.70
23471;DHT22;11908;50.806;4.424;2024-03-25T12:48:08;16.30;92.30
23471;DHT22;11908;50.806;4.424;2024-03-25T12:50:34;16.50;91.90
23471;DHT22;11908;50.806;4.424;2024-03-25T12:53:00;16.10;93.10
23471;DHT22;11908;50.806;4.424;2024-03-25T12:55:25;15.80;95.70
23471;DHT22;11908;50.806;4.424;2024-03-25T12:57:51;15.80;95.30
23471;DHT22;11908;50.806;4.424;2024-03-25T13:00:17;15.70;94.00
23471;DHT22;11908;50.806;4.424;2024-03-25T13:02:43;15.70;93.30
23471;DHT22;11908;50.806;4.424;2024-03-25T13:05:09;15.80;92.90
23471;DHT22;11908;50.806;4.424;2024-03-25T13:07:35;16.00;90.10
23471;DHT22;11908;50.806;4.424;2024-03-25T13:10:01;15.70;90.10
23471;DHT22;11908;50.806;4.424;2024-03-25T13:12:26;15.70;90.70
23471;DHT22;11908;50.806;4.424;2024-03-25T13:14:52;15.60;90.90
23471;DHT22;11908;50.806;4.424;2024-03-25T13:17:18;15.80;91.30
23471;DHT22;11908;50.806;4.424;2024-03-25T13:19:43;15.90;92.70
23471;DHT22;11908;50.806;4.424;2024-03-25T13:22:09;15.90;91.80
23471;DHT22;11908;50.806;4.424;2024-03-25T13:24:35;15.90;92.60
23471;DHT22;11908;50.806;4.424;2024-03-25T13:27:00;16.20;92.60
23471;DHT22;11908;50.806;4.424;2024-03-25T13:29:26;16.30;92.40
23471;DHT22;11908;50.806;4.424;2024-03-25T13:31:52;16.10;91.40
23471;DHT22;11908;50.806;4.424;2024-03-25T13:34:17;15.90;93.00
23471;DHT22;11908;50.806;4.424;2024-03-25T13:36:43;15.90;93.80
23471;DHT22;11908;50.806;4.424;2024-03-25T13:39:09;15.70;93.90
23471;DHT22;11908;50.806;4.424;2024-03-25T13:41:35;15.10;95.70
23471;DHT22;11908;50.806;4.424;2024-03-25T13:44:01;14.50;93.80
23471;DHT22;11908;50.806;4.424;2024-03-25T13:46:26;14.40;94.80
23471;DHT22;11908;50.806;4.424;2024-03-25T13:48:52;14.20;95.10
23471;DHT22;11908;50.806;4.424;2024-03-25T13:51:18;14.20;95.30
23471;DHT22;11908;50.806;4.424;2024-03-25T13:53:43;14.30;95.30
23471;DHT22;11908;50.806;4.424;2024-03-25T13:56:09;14.30;95.90
23471;DHT22;11908;50.806;4.424;2024-03-25T13:58:35;14.40;97.10
23471;DHT22;11908;50.806;4.424;2024-03-25T14:01:00;14.50;96.50
23471;DHT22;11908;50.806;4.424;2024-03-25T14:03:26;14.70;95.40
23471;DHT22;11908;50.806;4.424;2024-03-25T14:05:52;14.70;95.10
23471;DHT22;11908;50.806;4.424;2024-03-25T14:08:18;14.60;96.60
23471;DHT22;11908;50.806;4.424;2024-03-25T14:10:43;14.70;95.10
23471;DHT22;11908;50.806;4.424;2024-03-25T14:13:09;14.70;96.60
23471;DHT22;11908;50.806;4.424;2024-03-25T14:15:35;14.60;96.00
23471;DHT22;11908;50.806;4.424;2024-03-25T14:18:01;14.70;95.20
23471;DHT22;11908;50.806;4.424;2024-03-25T14:20:26;14.70;96.80
23471;DHT22;11908;50.806;4.424;2024-03-25T14:22:52;14.70;97.20
23471;DHT22;11908;50.806;4.424;2024-03-25T14:25:18;14.40;98.40
23471;DHT22;11908;50.806;4.424;2024-03-25T14:27:45;14.20;98.60
23471;DHT22;11908;50.806;4.424;2024-03-25T14:30:11;14.00;98.40
23471;DHT22;11908;50.806;4.424;2024-03-25T14:32:37;14.00;97.90
23471;DHT22;11908;50.806;4.424;2024-03-25T14:35:05;14.00;98.40
23471;DHT22;11908;50.806;4.424;2024-03-25T14:37:32;14.00;97.90
23471;DHT22;11908;50.806;4.424;2024-03-25T14:39:58;14.00;97.60
23471;DHT22;11908;50.806;4.424;2024-03-25T14:42:25;14.10;96.30
23471;DHT22;11908;50.806;4.424;2024-03-25T14:44:51;14.10;96.60
23471;DHT22;11908;50.806;4.424;2024-03-25T14:47:16;13.80;97.20
23471;DHT22;11908;50.806;4.424;2024-03-25T14:49:42;13.70;97.30
23471;DHT22;11908;50.806;4.424;2024-03-25T14:52:08;13.70;98.20
23471;DHT22;11908;50.806;4.424;2024-03-25T14:54:34;13.40;99.40
23471;DHT22;11908;50.806;4.424;2024-03-25T14:57:00;13.30;99.30
23471;DHT22;11908;50.806;4.424;2024-03-25T14:59:29;13.40;99.90
23471;DHT22;11908;50.806;4.424;2024-03-25T15:02:00;13.30;99.90
23471;DHT22;11908;50.806;4.424;2024-03-25T15:04:26;13.40;99.30
23471;DHT22;11908;50.806;4.424;2024-03-25T15:06:52;13.40;98.60
23471;DHT22;11908;50.806;4.424;2024-03-25T15:09:18;13.50;98.70
23471;DHT22;11908;50.806;4.424;2024-03-25T15:11:45;13.50;99.70
23471;DHT22;11908;50.806;4.424;2024-03-25T15:14:11;13.60;97.70
23471;DHT22;11908;50.806;4.424;2024-03-25T15:16:37;13.60;97.60
23471;DHT22;11908;50.806;4.424;2024-03-25T15:19:03;13.60;97.70
23471;DHT22;11908;50.806;4.424;2024-03-25T15:21:29;13.60;98.90
23471;DHT22;11908;50.806;4.424;2024-03-25T15:23:55;13.60;97.40
23471;DHT22;11908;50.806;4.424;2024-03-25T15:26:21;13.60;97.80
23471;DHT22;11908;50.806;4.424;2024-03-25T15:28:48;13.70;98.80
23471;DHT22;11908;50.806;4.424;2024-03-25T15:31:13;13.60;99.90
23471;DHT22;11908;50.806;4.424;2024-03-25T15:33:39;13.50;99.90
23471;DHT22;11908;50.806;4.424;2024-03-25T15:36:05;13.40;99.90
23471;DHT22;11908;50.806;4.424;2024-03-25T15:38:31;13.40;99.90